Time,TemperatureF,DewpointF,PressureIn,WindDirection,WindDirectionDegrees,WindSpeedMPH,WindSpeedGustMPH,Humidity,HourlyPrecipIn,Conditions,Clouds,dailyrainin,SoftwareType,DateUTC
2013-01-20 00:00:00,48.3,32.0,29.72,WNW,296,12.0,36.0,53,0.00,,,0.00,WUHU216DAVISVP2,2013-01-20 05:00:00,
2013-01-20 00:02:00,48.2,31.9,29.72,West,274,20.0,36.0,53,0.00,,,0.00,WUHU216DAVISVP2,2013-01-20 05:02:00,
2013-01-20 00:03:00,48.2,31.9,29.71,West,268,20.0,36.0,53,0.00,,,0.00,WUHU216DAVISVP2,2013-01-20 05:03:00,
2013-01-20 00:08:00,48.3,32.0,29.72,WSW,252,10.0,36.0,53,0.00,,,0.00,WUHU216DAVISVP2,2013-01-20 05:08:00,
2013-01-20 00:13:00,48.1,32.3,29.71,West,274,14.0,38.0,54,0.00,,,0.00,WUHU216DAVISVP2,2013-01-20 05:13:00,
2013-01-20 00:18:00,48.1,32.3,29.71,WSW,237,24.0,38.0,54,0.00,,,0.00,WUHU216DAVISVP2,2013-01-20 05:18:00,
2013-01-20 00:23:00,48.0,32.6,29.72,WNW,282,20.0,38.0,55,0.00,,,0.00,WUHU216DAVISVP2,2013-01-20 05:23:00,
2013-01-20 00:28:00,47.9,32.5,29.72,West,265,12.0,40.0,55,0.00,,,0.00,WUHU216DAVISVP2,2013-01-20 05:28:00,
2013-01-20 00:33:00,47.8,32.9,29.71,SSW,212,14.0,40.0,56,0.00,,,0.00,WUHU216DAVISVP2,2013-01-20 05:33:00,
2013-01-20 00:38:00,47.7,32.8,29.70,WNW,294,14.0,38.0,56,0.00,,,0.00,WUHU216DAVISVP2,2013-01-20 05:38:00,
2013-01-20 00:43:00,47.4,33.0,29.70,West,271,32.0,38.0,57,0.00,,,0.00,WUHU216DAVISVP2,2013-01-20 05:43:00,
2013-01-20 00:48:00,47.4,33.0,29.70,WSW,241,12.0,50.0,57,0.00,,,0.00,WUHU216DAVISVP2,2013-01-20 05:48:00,
2013-01-20 00:54:00,47.2,33.2,29.70,SSW,201,22.0,50.0,58,0.00,,,0.00,WUHU216DAVISVP2,2013-01-20 05:54:00,
2013-01-20 00:59:00,46.8,32.9,29.70,WSW,256,16.0,30.0,58,0.00,,,0.00,WUHU216DAVISVP2,2013-01-20 05:59:00,
2013-01-20 01:04:00,46.7,33.2,29.71,WSW,239,6.0,28.0,59,0.00,,,0.00,WUHU216DAVISVP2,2013-01-20 06:04:00,
2013-01-20 01:09:00,46.3,33.2,29.70,WSW,247,20.0,32.0,60,0.00,,,0.00,WUHU216DAVISVP2,2013-01-20 06:09:00,
2013-01-20 01:14:00,46.3,33.2,29.70,SW,229,28.0,32.0,60,0.00,,,0.00,WUHU216DAVISVP2,2013-01-20 06:14:00,
2013-01-20 01:19:00,46.0,33.0,29.69,NNW,343,12.0,40.0,60,0.00,,,0.00,WUHU216DAVISVP2,2013-01-20 06:19:00,
2013-01-20 01:24:00,46.0,33.4,29.69,West,275,6.0,42.0,61,0.00,,,0.00,WUHU216DAVISVP2,2013-01-20 06:24:00,
2013-01-20 01:29:00,46.0,33.4,29.70,West,281,6.0,42.0,61,0.00,,,0.00,WUHU216DAVISVP2,2013-01-20 06:29:00,
2013-01-20 01:34:00,45.9,33.3,29.70,South,183,36.0,36.0,61,0.00,,,0.00,WUHU216DAVISVP2,2013-01-20 06:34:00,
2013-01-20 01:39:00,45.9,33.7,29.69,West,261,12.0,36.0,62,0.00,,,0.00,WUHU216DAVISVP2,2013-01-20 06:39:00,
2013-01-20 01:44:00,45.8,33.6,29.69,West,279,10.0,30.0,62,0.00,,,0.00,WUHU216DAVISVP2,2013-01-20 06:44:00,
2013-01-20 01:49:00,45.7,33.5,29.70,SSW,209,10.0,30.0,62,0.00,,,0.00,WUHU216DAVISVP2,2013-01-20 06:49:00,
2013-01-20 01:54:00,45.6,33.4,29.69,WNW,293,22.0,40.0,62,0.00,,,0.00,WUHU216DAVISVP2,2013-01-20 06:54:00,
2013-01-20 01:59:00,45.5,33.7,29.70,West,263,26.0,40.0,63,0.00,,,0.00,WUHU216DAVISVP2,2013-01-20 06:59:00,
2013-01-20 02:04:00,45.4,33.6,29.70,SSW,211,10.0,34.0,63,0.00,,,0.00,WUHU216DAVISVP2,2013-01-20 07:04:00,
2013-01-20 02:09:00,45.4,33.6,29.70,WNW,296,12.0,38.0,63,0.00,,,0.00,WUHU216DAVISVP2,2013-01-20 07:09:00,
2013-01-20 02:14:00,45.4,33.6,29.70,West,268,10.0,38.0,63,0.00,,,0.00,WUHU216DAVISVP2,2013-01-20 07:14:00,
2013-01-20 02:19:00,45.3,33.5,29.70,SW,234,10.0,42.0,63,0.00,,,0.00,WUHU216DAVISVP2,2013-01-20 07:19:00,
2013-01-20 02:25:00,45.1,33.7,29.71,WNW,290,18.0,42.0,64,0.00,,,0.00,WUHU216DAVISVP2,2013-01-20 07:25:00,
2013-01-20 02:30:00,45.1,33.7,29.71,SW,231,8.0,30.0,64,0.00,,,0.00,WUHU216DAVISVP2,2013-01-20 07:30:00,
2013-01-20 02:35:00,45.0,33.6,29.71,WSW,251,8.0,30.0,64,0.00,,,0.00,WUHU216DAVISVP2,2013-01-20 07:35:00,
2013-01-20 02:40:00,45.0,33.6,29.71,West,279,8.0,30.0,64,0.00,,,0.00,WUHU216DAVISVP2,2013-01-20 07:40:00,
2013-01-20 02:45:00,45.0,34.0,29.71,WNW,296,18.0,42.0,65,0.00,,,0.00,WUHU216DAVISVP2,2013-01-20 07:45:00,
2013-01-20 02:50:00,45.0,34.0,29.72,WNW,286,20.0,42.0,65,0.00,,,0.00,WUHU216DAVISVP2,2013-01-20 07:50:00,
2013-01-20 02:55:00,45.0,34.0,29.72,NW,304,14.0,32.0,65,0.00,,,0.00,WUHU216DAVISVP2,2013-01-20 07:55:00,
2013-01-20 03:00:00,44.9,33.9,29.72,NNW,344,14.0,40.0,65,0.00,,,0.00,WUHU216DAVISVP2,2013-01-20 08:00:00,
2013-01-20 03:05:00,44.9,33.9,29.71,WNW,287,14.0,40.0,65,0.00,,,0.00,WUHU216DAVISVP2,2013-01-20 08:05:00,
2013-01-20 03:10:00,44.6,34.0,29.71,West,267,6.0,36.0,66,0.00,,,0.00,WUHU216DAVISVP2,2013-01-20 08:10:00,
2013-01-20 03:15:00,44.5,33.2,29.72,West,278,8.0,34.0,64,0.00,,,0.00,WUHU216DAVISVP2,2013-01-20 08:15:00,
2013-01-20 03:20:00,44.4,32.7,29.72,SW,234,16.0,38.0,63,0.00,,,0.00,WUHU216DAVISVP2,2013-01-20 08:20:00,
2013-01-20 03:25:00,44.2,32.1,29.72,WNW,284,22.0,38.0,62,0.00,,,0.00,WUHU216DAVISVP2,2013-01-20 08:25:00,
2013-01-20 03:30:00,44.0,31.1,29.73,WNW,290,26.0,38.0,60,0.00,,,0.00,WUHU216DAVISVP2,2013-01-20 08:30:00,
2013-01-20 03:35:00,44.0,29.3,29.73,NW,312,16.0,48.0,56,0.00,,,0.00,WUHU216DAVISVP2,2013-01-20 08:35:00,
2013-01-20 03:40:00,43.6,29.0,29.73,WNW,292,24.0,48.0,56,0.00,,,0.00,WUHU216DAVISVP2,2013-01-20 08:40:00,
2013-01-20 03:45:00,43.2,29.0,29.73,WSW,249,20.0,38.0,57,0.00,,,0.00,WUHU216DAVISVP2,2013-01-20 08:45:00,
2013-01-20 03:50:00,42.8,29.1,29.74,WNW,295,6.0,30.0,58,0.00,,,0.00,WUHU216DAVISVP2,2013-01-20 08:50:00,
2013-01-20 03:55:00,42.5,29.7,29.74,WSW,254,14.0,30.0,60,0.00,,,0.00,WUHU216DAVISVP2,2013-01-20 08:55:00,
2013-01-20 04:00:00,42.6,29.8,29.74,WSW,251,10.0,38.0,60,0.00,,,0.00,WUHU216DAVISVP2,2013-01-20 09:00:00,
2013-01-20 04:05:00,42.6,29.3,29.74,West,268,26.0,48.0,59,0.00,,,0.00,WUHU216DAVISVP2,2013-01-20 09:05:00,
2013-01-20 04:10:00,42.6,29.3,29.75,WNW,296,14.0,48.0,59,0.00,,,0.00,WUHU216DAVISVP2,2013-01-20 09:10:00,
2013-01-20 04:15:00,42.3,29.0,29.75,NW,312,16.0,26.0,59,0.00,,,0.00,WUHU216DAVISVP2,2013-01-20 09:15:00,
2013-01-20 04:20:00,42.1,28.9,29.75,NW,306,14.0,42.0,59,0.00,,,0.00,WUHU216DAVISVP2,2013-01-20 09:20:00,
2013-01-20 04:25:00,41.8,28.2,29.76,West,264,28.0,64.0,58,0.00,,,0.00,WUHU216DAVISVP2,2013-01-20 09:25:00,
2013-01-20 04:30:00,41.4,28.6,29.77,NNW,334,8.0,64.0,60,0.00,,,0.00,WUHU216DAVISVP2,2013-01-20 09:30:00,
2013-01-20 04:35:00,41.1,27.9,29.77,West,263,20.0,42.0,59,0.00,,,0.00,WUHU216DAVISVP2,2013-01-20 09:35:00,
2013-01-20 04:40:00,40.4,27.7,29.77,WNW,294,14.0,48.0,60,0.00,,,0.00,WUHU216DAVISVP2,2013-01-20 09:40:00,
2013-01-20 04:46:00,39.8,27.5,29.78,WNW,292,26.0,48.0,61,0.00,,,0.00,WUHU216DAVISVP2,2013-01-20 09:46:00,
2013-01-20 04:51:00,39.4,26.7,29.78,West,262,20.0,40.0,60,0.00,,,0.00,WUHU216DAVISVP2,2013-01-20 09:51:00,
2013-01-20 04:56:00,39.2,26.1,29.79,WNW,292,14.0,50.0,59,0.00,,,0.00,WUHU216DAVISVP2,2013-01-20 09:56:00,
2013-01-20 05:01:00,38.9,25.4,29.79,NW,305,34.0,50.0,58,0.00,,,0.00,WUHU216DAVISVP2,2013-01-20 10:01:00,
2013-01-20 05:06:00,38.6,25.1,29.79,NW,320,20.0,48.0,58,0.00,,,0.00,WUHU216DAVISVP2,2013-01-20 10:06:00,
2013-01-20 05:11:00,38.1,25.1,29.81,West,275,18.0,44.0,59,0.00,,,0.00,WUHU216DAVISVP2,2013-01-20 10:11:00,
2013-01-20 05:16:00,37.0,24.0,29.81,North,355,14.0,48.0,59,0.00,,,0.00,WUHU216DAVISVP2,2013-01-20 10:16:00,
2013-01-20 05:21:00,36.4,24.3,29.82,NNW,338,14.0,48.0,61,0.00,,,0.00,WUHU216DAVISVP2,2013-01-20 10:21:00,
2013-01-20 05:26:00,35.6,23.5,29.83,WNW,294,24.0,50.0,61,0.00,,,0.00,WUHU216DAVISVP2,2013-01-20 10:26:00,
2013-01-20 05:31:00,34.8,22.0,29.83,NW,311,16.0,52.0,59,0.00,,,0.00,WUHU216DAVISVP2,2013-01-20 10:31:00,
2013-01-20 05:36:00,34.5,21.7,29.84,WNW,292,22.0,52.0,59,0.00,,,0.00,WUHU216DAVISVP2,2013-01-20 10:36:00,
2013-01-20 05:41:00,34.3,21.1,29.84,WNW,294,20.0,40.0,58,0.00,,,0.00,WUHU216DAVISVP2,2013-01-20 10:41:00,
2013-01-20 05:46:00,33.9,21.9,29.85,WNW,302,20.0,44.0,61,0.00,,,0.00,WUHU216DAVISVP2,2013-01-20 10:46:00,
2013-01-20 05:51:00,33.3,21.7,29.87,NW,321,20.0,44.0,62,0.00,,,0.00,WUHU216DAVISVP2,2013-01-20 10:51:00,
2013-01-20 05:56:00,32.8,22.0,29.87,North,349,14.0,42.0,64,0.00,,,0.00,WUHU216DAVISVP2,2013-01-20 10:56:00,
2013-01-20 06:01:00,32.3,22.3,29.88,NNW,334,22.0,40.0,66,0.00,,,0.00,WUHU216DAVISVP2,2013-01-20 11:01:00,
2013-01-20 06:06:00,31.9,21.2,29.88,NW,323,12.0,40.0,64,0.00,,,0.00,WUHU216DAVISVP2,2013-01-20 11:06:00,
2013-01-20 06:12:00,31.5,19.6,29.89,NW,309,20.0,32.0,61,0.00,,,0.00,WUHU216DAVISVP2,2013-01-20 11:12:00,
2013-01-20 06:17:00,31.2,19.0,29.89,WNW,294,22.0,34.0,60,0.00,,,0.00,WUHU216DAVISVP2,2013-01-20 11:17:00,
2013-01-20 06:22:00,30.9,20.6,29.90,WNW,302,28.0,34.0,65,0.00,,,0.00,WUHU216DAVISVP2,2013-01-20 11:22:00,
2013-01-20 06:27:00,30.5,21.6,29.90,NNW,333,24.0,40.0,69,0.00,,,0.00,WUHU216DAVISVP2,2013-01-20 11:27:00,
2013-01-20 06:32:00,30.3,22.1,29.91,NW,312,6.0,40.0,71,0.00,,,0.00,WUHU216DAVISVP2,2013-01-20 11:32:00,
2013-01-20 06:37:00,30.1,21.9,29.91,WNW,294,12.0,24.0,71,0.00,,,0.00,WUHU216DAVISVP2,2013-01-20 11:37:00,
2013-01-20 06:42:00,30.0,20.8,29.91,West,265,16.0,36.0,68,0.00,,,0.00,WUHU216DAVISVP2,2013-01-20 11:42:00,
2013-01-20 06:47:00,29.8,20.2,29.92,NW,321,18.0,36.0,67,0.00,,,0.00,WUHU216DAVISVP2,2013-01-20 11:47:00,
2013-01-20 06:52:00,29.6,20.0,29.92,West,261,12.0,30.0,67,0.00,,,0.00,WUHU216DAVISVP2,2013-01-20 11:52:00,
2013-01-20 06:57:00,29.5,20.0,29.93,WNW,294,18.0,30.0,67,0.00,,,0.00,WUHU216DAVISVP2,2013-01-20 11:57:00,
2013-01-20 07:02:00,29.2,19.7,29.93,WNW,289,14.0,42.0,67,0.00,,,0.00,WUHU216DAVISVP2,2013-01-20 12:02:00,
2013-01-20 07:07:00,28.9,19.7,29.94,NW,319,14.0,42.0,68,0.00,,,0.00,WUHU216DAVISVP2,2013-01-20 12:07:00,
2013-01-20 07:12:00,28.7,19.5,29.94,WSW,252,18.0,30.0,68,0.00,,,0.00,WUHU216DAVISVP2,2013-01-20 12:12:00,
2013-01-20 07:17:00,28.2,19.1,29.95,NE,43,12.0,34.0,68,0.00,,,0.00,WUHU216DAVISVP2,2013-01-20 12:17:00,
2013-01-20 07:22:00,27.9,18.8,29.95,WSW,250,10.0,34.0,68,0.00,,,0.00,WUHU216DAVISVP2,2013-01-20 12:22:00,
2013-01-20 07:27:00,27.8,18.7,29.96,NNW,346,14.0,32.0,68,0.00,,,0.00,WUHU216DAVISVP2,2013-01-20 12:27:00,
2013-01-20 07:32:00,27.7,18.6,29.96,NW,306,14.0,40.0,68,0.00,,,0.00,WUHU216DAVISVP2,2013-01-20 12:32:00,
2013-01-20 07:37:00,27.5,18.4,29.97,West,281,10.0,40.0,68,0.00,,,0.00,WUHU216DAVISVP2,2013-01-20 12:37:00,
2013-01-20 07:42:00,27.5,18.4,29.97,NW,307,12.0,28.0,68,0.00,,,0.00,WUHU216DAVISVP2,2013-01-20 12:42:00,
2013-01-20 07:47:00,27.4,18.3,29.98,NW,309,12.0,30.0,68,0.00,,,0.00,WUHU216DAVISVP2,2013-01-20 12:47:00,
2013-01-20 07:52:00,27.4,18.3,29.98,NW,310,36.0,36.0,68,0.00,,,0.00,WUHU216DAVISVP2,2013-01-20 12:52:00,
2013-01-20 07:57:00,27.2,18.4,29.98,NW,311,18.0,36.0,69,0.00,,,0.00,WUHU216DAVISVP2,2013-01-20 12:57:00,
2013-01-20 08:02:00,27.1,18.3,29.99,NW,304,10.0,32.0,69,0.00,,,0.00,WUHU216DAVISVP2,2013-01-20 13:02:00,
2013-01-20 08:07:00,27.0,18.6,30.00,NW,305,20.0,28.0,70,0.00,,,0.00,WUHU216DAVISVP2,2013-01-20 13:07:00,
2013-01-20 08:12:00,26.7,18.3,30.00,West,267,14.0,48.0,70,0.00,,,0.00,WUHU216DAVISVP2,2013-01-20 13:12:00,
2013-01-20 08:17:00,26.6,18.5,30.01,SW,235,28.0,48.0,71,0.00,,,0.00,WUHU216DAVISVP2,2013-01-20 13:17:00,
2013-01-20 08:22:00,26.4,18.0,30.01,West,277,16.0,38.0,70,0.00,,,0.00,WUHU216DAVISVP2,2013-01-20 13:22:00,
2013-01-20 08:27:00,26.0,17.3,30.01,NNW,328,10.0,38.0,69,0.00,,,0.00,WUHU216DAVISVP2,2013-01-20 13:27:00,
2013-01-20 08:32:00,26.0,17.3,30.02,NNW,336,16.0,34.0,69,0.00,,,0.00,WUHU216DAVISVP2,2013-01-20 13:32:00,
2013-01-20 08:37:00,25.8,16.4,30.03,NW,308,12.0,38.0,67,0.00,,,0.00,WUHU216DAVISVP2,2013-01-20 13:37:00,
2013-01-20 08:42:00,25.6,16.2,30.03,WNW,298,12.0,38.0,67,0.00,,,0.00,WUHU216DAVISVP2,2013-01-20 13:42:00,
2013-01-20 08:47:00,25.6,16.2,30.03,West,266,14.0,30.0,67,0.00,,,0.00,WUHU216DAVISVP2,2013-01-20 13:47:00,
2013-01-20 08:53:00,25.5,16.5,30.04,WNW,286,22.0,26.0,68,0.00,,,0.00,WUHU216DAVISVP2,2013-01-20 13:53:00,
2013-01-20 08:58:00,25.3,16.3,30.04,WNW,295,18.0,28.0,68,0.00,,,0.00,WUHU216DAVISVP2,2013-01-20 13:58:00,
2013-01-20 09:03:00,25.4,15.7,30.05,NW,307,22.0,28.0,66,0.00,,,0.00,WUHU216DAVISVP2,2013-01-20 14:03:00,
2013-01-20 09:08:00,25.1,15.0,30.05,NW,305,22.0,36.0,65,0.00,,,0.00,WUHU216DAVISVP2,2013-01-20 14:08:00,
2013-01-20 09:13:00,24.9,14.5,30.06,WNW,300,14.0,38.0,64,0.00,,,0.00,WUHU216DAVISVP2,2013-01-20 14:13:00,
2013-01-20 09:18:00,24.9,15.2,30.06,West,272,14.0,38.0,66,0.00,,,0.00,WUHU216DAVISVP2,2013-01-20 14:18:00,
2013-01-20 09:23:00,24.8,15.5,30.06,NNW,333,16.0,38.0,67,0.00,,,0.00,WUHU216DAVISVP2,2013-01-20 14:23:00,
2013-01-20 09:28:00,24.7,15.7,30.07,West,277,28.0,30.0,68,0.00,,,0.00,WUHU216DAVISVP2,2013-01-20 14:28:00,
2013-01-20 09:33:00,24.2,16.5,30.08,West,277,18.0,28.0,72,0.00,,,0.00,WUHU216DAVISVP2,2013-01-20 14:33:00,
2013-01-20 09:38:00,23.5,17.1,30.08,NW,317,20.0,30.0,76,0.00,,,0.00,WUHU216DAVISVP2,2013-01-20 14:38:00,
2013-01-20 09:43:00,23.3,16.0,30.08,WNW,289,14.0,34.0,73,0.00,,,0.00,WUHU216DAVISVP2,2013-01-20 14:43:00,
2013-01-20 09:48:00,23.4,16.1,30.09,NW,319,24.0,38.0,73,0.00,,,0.00,WUHU216DAVISVP2,2013-01-20 14:48:00,
2013-01-20 09:53:00,23.2,15.2,30.09,West,265,20.0,38.0,71,0.00,,,0.00,WUHU216DAVISVP2,2013-01-20 14:53:00,
2013-01-20 09:58:00,23.3,15.3,30.10,North,355,10.0,30.0,71,0.00,,,0.00,WUHU216DAVISVP2,2013-01-20 14:58:00,
2013-01-20 10:03:00,23.0,15.7,30.10,WNW,298,10.0,36.0,73,0.00,,,0.00,WUHU216DAVISVP2,2013-01-20 15:03:00,
2013-01-20 10:08:00,22.7,15.7,30.10,NW,311,8.0,36.0,74,0.00,,,0.00,WUHU216DAVISVP2,2013-01-20 15:08:00,
2013-01-20 10:13:00,22.7,15.4,30.11,NNW,340,6.0,28.0,73,0.00,,,0.00,WUHU216DAVISVP2,2013-01-20 15:13:00,
2013-01-20 10:18:00,22.8,15.2,30.11,NW,316,16.0,28.0,72,0.00,,,0.00,WUHU216DAVISVP2,2013-01-20 15:18:00,
2013-01-20 10:23:00,22.6,15.0,30.12,WNW,301,10.0,24.0,72,0.00,,,0.00,WUHU216DAVISVP2,2013-01-20 15:23:00,
2013-01-20 10:28:00,22.5,14.9,30.12,NNW,331,10.0,26.0,72,0.00,,,0.00,WUHU216DAVISVP2,2013-01-20 15:28:00,
2013-01-20 10:34:00,22.5,14.9,30.13,NW,306,12.0,28.0,72,0.00,,,0.00,WUHU216DAVISVP2,2013-01-20 15:34:00,
2013-01-20 10:39:00,22.4,15.1,30.14,WNW,295,10.0,28.0,73,0.00,,,0.00,WUHU216DAVISVP2,2013-01-20 15:39:00,
2013-01-20 10:44:00,22.3,15.0,30.14,West,275,8.0,20.0,73,0.00,,,0.00,WUHU216DAVISVP2,2013-01-20 15:44:00,
2013-01-20 10:50:00,22.4,15.4,30.14,WNW,303,20.0,22.0,74,0.00,,,0.00,WUHU216DAVISVP2,2013-01-20 15:50:00,
2013-01-20 10:55:00,22.2,14.6,30.14,North,355,14.0,24.0,72,0.00,,,0.00,WUHU216DAVISVP2,2013-01-20 15:55:00,
2013-01-20 11:00:00,22.1,15.1,30.15,West,265,12.0,24.0,74,0.00,,,0.00,WUHU216DAVISVP2,2013-01-20 16:00:00,
2013-01-20 11:05:00,22.1,14.5,30.15,NW,313,6.0,28.0,72,0.00,,,0.00,WUHU216DAVISVP2,2013-01-20 16:05:00,
2013-01-20 11:10:00,22.1,13.9,30.15,WNW,284,26.0,34.0,70,0.00,,,0.00,WUHU216DAVISVP2,2013-01-20 16:10:00,
2013-01-20 11:15:00,22.0,13.4,30.15,West,269,8.0,34.0,69,0.00,,,0.00,WUHU216DAVISVP2,2013-01-20 16:15:00,
2013-01-20 11:20:00,21.8,13.9,30.15,WNW,286,14.0,26.0,71,0.00,,,0.00,WUHU216DAVISVP2,2013-01-20 16:20:00,
2013-01-20 11:25:00,21.5,14.2,30.15,WNW,292,10.0,26.0,73,0.00,,,0.00,WUHU216DAVISVP2,2013-01-20 16:25:00,
2013-01-20 11:30:00,21.2,14.5,30.15,NW,309,16.0,30.0,75,0.00,,,0.00,WUHU216DAVISVP2,2013-01-20 16:30:00,
2013-01-20 11:35:00,20.9,14.5,30.15,WNW,288,8.0,30.0,76,0.00,,,0.00,WUHU216DAVISVP2,2013-01-20 16:35:00,
2013-01-20 11:40:00,21.1,14.1,30.15,NW,317,12.0,24.0,74,0.00,,,0.00,WUHU216DAVISVP2,2013-01-20 16:40:00,
2013-01-20 11:45:00,21.0,14.0,30.15,NW,309,12.0,24.0,74,0.00,,,0.00,WUHU216DAVISVP2,2013-01-20 16:45:00,
2013-01-20 11:50:00,20.9,14.3,30.15,WSW,248,14.0,30.0,75,0.00,,,0.00,WUHU216DAVISVP2,2013-01-20 16:50:00,
2013-01-20 11:55:00,20.9,14.3,30.15,WNW,289,8.0,30.0,75,0.00,,,0.00,WUHU216DAVISVP2,2013-01-20 16:55:00,
2013-01-20 12:00:00,21.1,14.4,30.15,NW,310,12.0,22.0,75,0.00,,,0.00,WUHU216DAVISVP2,2013-01-20 17:00:00,
2013-01-20 12:05:00,21.3,13.7,30.15,NW,309,4.0,22.0,72,0.00,,,0.00,WUHU216DAVISVP2,2013-01-20 17:05:00,
2013-01-20 12:10:00,21.6,13.4,30.15,NW,306,10.0,26.0,70,0.00,,,0.00,WUHU216DAVISVP2,2013-01-20 17:10:00,
2013-01-20 12:15:00,21.7,12.8,30.16,WNW,284,6.0,26.0,68,0.00,,,0.00,WUHU216DAVISVP2,2013-01-20 17:15:00,
2013-01-20 12:20:00,21.5,12.6,30.16,WNW,288,8.0,22.0,68,0.00,,,0.00,WUHU216DAVISVP2,2013-01-20 17:20:00,
2013-01-20 12:26:00,21.7,12.8,30.16,West,275,4.0,22.0,68,0.00,,,0.00,WUHU216DAVISVP2,2013-01-20 17:26:00,
2013-01-20 12:31:00,21.5,13.0,30.16,West,263,10.0,22.0,69,0.00,,,0.00,WUHU216DAVISVP2,2013-01-20 17:31:00,
2013-01-20 12:36:00,21.4,12.5,30.16,West,278,12.0,24.0,68,0.00,,,0.00,WUHU216DAVISVP2,2013-01-20 17:36:00,
2013-01-20 12:41:00,21.3,12.1,30.16,West,277,14.0,34.0,67,0.00,,,0.00,WUHU216DAVISVP2,2013-01-20 17:41:00,
2013-01-20 12:46:00,21.4,12.2,30.15,WNW,289,10.0,34.0,67,0.00,,,0.00,WUHU216DAVISVP2,2013-01-20 17:46:00,
2013-01-20 12:51:00,21.8,12.6,30.16,West,261,16.0,20.0,67,0.00,,,0.00,WUHU216DAVISVP2,2013-01-20 17:51:00,
2013-01-20 12:56:00,21.8,12.6,30.16,NW,315,8.0,18.0,67,0.00,,,0.00,WUHU216DAVISVP2,2013-01-20 17:56:00,
2013-01-20 13:01:00,21.7,11.8,30.16,WNW,284,6.0,20.0,65,0.00,,,0.00,WUHU216DAVISVP2,2013-01-20 18:01:00,
2013-01-20 13:06:00,21.5,11.3,30.16,NNW,329,12.0,20.0,64,0.00,,,0.00,WUHU216DAVISVP2,2013-01-20 18:06:00,
2013-01-20 13:11:00,21.5,11.6,30.16,West,261,12.0,36.0,65,0.00,,,0.00,WUHU216DAVISVP2,2013-01-20 18:11:00,
2013-01-20 13:16:00,21.4,11.5,30.17,WNW,300,10.0,36.0,65,0.00,,,0.00,WUHU216DAVISVP2,2013-01-20 18:16:00,
2013-01-20 13:21:00,21.4,11.9,30.17,East,98,6.0,32.0,66,0.00,,,0.00,WUHU216DAVISVP2,2013-01-20 18:21:00,
2013-01-20 13:26:00,21.5,10.9,30.17,WNW,292,16.0,22.0,63,0.00,,,0.00,WUHU216DAVISVP2,2013-01-20 18:26:00,
2013-01-20 13:31:00,21.5,11.3,30.16,WNW,303,10.0,22.0,64,0.00,,,0.00,WUHU216DAVISVP2,2013-01-20 18:31:00,
2013-01-20 13:36:00,21.5,11.3,30.17,West,271,10.0,22.0,64,0.00,,,0.00,WUHU216DAVISVP2,2013-01-20 18:36:00,
2013-01-20 13:41:00,21.7,11.8,30.17,West,273,6.0,20.0,65,0.00,,,0.00,WUHU216DAVISVP2,2013-01-20 18:41:00,
2013-01-20 13:46:00,21.8,11.9,30.16,West,267,12.0,18.0,65,0.00,,,0.00,WUHU216DAVISVP2,2013-01-20 18:46:00,
2013-01-20 13:52:00,21.9,12.0,30.16,WNW,296,12.0,18.0,65,0.00,,,0.00,WUHU216DAVISVP2,2013-01-20 18:52:00,
2013-01-20 13:57:00,21.8,11.5,30.16,WSW,251,8.0,20.0,64,0.00,,,0.00,WUHU216DAVISVP2,2013-01-20 18:57:00,
2013-01-20 14:02:00,22.0,11.7,30.16,West,267,8.0,20.0,64,0.00,,,0.00,WUHU216DAVISVP2,2013-01-20 19:02:00,
2013-01-20 14:07:00,21.7,11.1,30.17,WNW,288,16.0,20.0,63,0.00,,,0.00,WUHU216DAVISVP2,2013-01-20 19:07:00,
2013-01-20 14:12:00,21.6,11.3,30.17,WNW,292,12.0,20.0,64,0.00,,,0.00,WUHU216DAVISVP2,2013-01-20 19:12:00,
2013-01-20 14:17:00,21.5,12.0,30.16,West,276,10.0,26.0,66,0.00,,,0.00,WUHU216DAVISVP2,2013-01-20 19:17:00,
2013-01-20 14:22:00,21.5,12.3,30.16,West,269,10.0,26.0,67,0.00,,,0.00,WUHU216DAVISVP2,2013-01-20 19:22:00,
2013-01-20 14:27:00,21.6,12.0,30.16,WSW,246,8.0,26.0,66,0.00,,,0.00,WUHU216DAVISVP2,2013-01-20 19:27:00,
2013-01-20 14:32:00,21.8,12.6,30.16,NW,311,0.0,18.0,67,0.00,,,0.00,WUHU216DAVISVP2,2013-01-20 19:32:00,
2013-01-20 14:37:00,22.1,11.8,30.16,West,271,20.0,20.0,64,0.00,,,0.00,WUHU216DAVISVP2,2013-01-20 19:37:00,
2013-01-20 14:42:00,22.0,11.7,30.16,WNW,298,12.0,20.0,64,0.00,,,0.00,WUHU216DAVISVP2,2013-01-20 19:42:00,
2013-01-20 14:47:00,22.1,11.8,30.16,WSW,251,6.0,22.0,64,0.00,,,0.00,WUHU216DAVISVP2,2013-01-20 19:47:00,
2013-01-20 14:52:00,22.5,11.5,30.16,West,263,20.0,22.0,62,0.00,,,0.00,WUHU216DAVISVP2,2013-01-20 19:52:00,
2013-01-20 14:57:00,22.4,11.4,30.15,West,276,12.0,24.0,62,0.00,,,0.00,WUHU216DAVISVP2,2013-01-20 19:57:00,
2013-01-20 15:02:00,22.1,11.1,30.16,West,263,8.0,26.0,62,0.00,,,0.00,WUHU216DAVISVP2,2013-01-20 20:02:00,
2013-01-20 15:07:00,22.0,11.7,30.16,West,267,12.0,26.0,64,0.00,,,0.00,WUHU216DAVISVP2,2013-01-20 20:07:00,
2013-01-20 15:12:00,22.1,11.8,30.16,NW,311,12.0,22.0,64,0.00,,,0.00,WUHU216DAVISVP2,2013-01-20 20:12:00,
2013-01-20 15:17:00,21.9,11.6,30.17,NW,311,6.0,22.0,64,0.00,,,0.00,WUHU216DAVISVP2,2013-01-20 20:17:00,
2013-01-20 15:22:00,22.0,12.4,30.17,West,273,10.0,22.0,66,0.00,,,0.00,WUHU216DAVISVP2,2013-01-20 20:22:00,
2013-01-20 15:27:00,22.1,12.2,30.17,WNW,286,10.0,24.0,65,0.00,,,0.00,WUHU216DAVISVP2,2013-01-20 20:27:00,
2013-01-20 15:32:00,22.2,12.3,30.17,NW,304,6.0,24.0,65,0.00,,,0.00,WUHU216DAVISVP2,2013-01-20 20:32:00,
2013-01-20 15:37:00,22.2,12.6,30.18,North,360,2.0,18.0,66,0.00,,,0.00,WUHU216DAVISVP2,2013-01-20 20:37:00,
2013-01-20 15:42:00,22.2,13.0,30.18,NW,317,12.0,16.0,67,0.00,,,0.00,WUHU216DAVISVP2,2013-01-20 20:42:00,
2013-01-20 15:47:00,22.2,13.3,30.18,West,267,4.0,20.0,68,0.00,,,0.00,WUHU216DAVISVP2,2013-01-20 20:47:00,
2013-01-20 15:52:00,22.3,13.1,30.18,WNW,302,10.0,20.0,67,0.00,,,0.00,WUHU216DAVISVP2,2013-01-20 20:52:00,
2013-01-20 15:58:00,22.5,12.9,30.18,NW,315,6.0,18.0,66,0.00,,,0.00,WUHU216DAVISVP2,2013-01-20 20:58:00,
2013-01-20 16:03:00,22.6,13.3,30.19,WNW,283,14.0,18.0,67,0.00,,,0.00,WUHU216DAVISVP2,2013-01-20 21:03:00,
2013-01-20 16:08:00,22.5,13.2,30.18,WNW,293,10.0,22.0,67,0.00,,,0.00,WUHU216DAVISVP2,2013-01-20 21:08:00,
2013-01-20 16:13:00,22.5,13.2,30.18,West,272,6.0,22.0,67,0.00,,,0.00,WUHU216DAVISVP2,2013-01-20 21:13:00,
2013-01-20 16:18:00,22.5,13.2,30.19,West,265,2.0,18.0,67,0.00,,,0.00,WUHU216DAVISVP2,2013-01-20 21:18:00,
2013-01-20 16:23:00,22.7,12.8,30.18,West,270,10.0,18.0,65,0.00,,,0.00,WUHU216DAVISVP2,2013-01-20 21:23:00,
2013-01-20 16:28:00,22.7,12.8,30.18,NW,317,12.0,18.0,65,0.00,,,0.00,WUHU216DAVISVP2,2013-01-20 21:28:00,
2013-01-20 16:33:00,22.7,13.1,30.19,WNW,300,4.0,18.0,66,0.00,,,0.00,WUHU216DAVISVP2,2013-01-20 21:33:00,
2013-01-20 16:38:00,22.7,13.1,30.19,NW,306,10.0,18.0,66,0.00,,,0.00,WUHU216DAVISVP2,2013-01-20 21:38:00,
2013-01-20 16:43:00,22.7,13.1,30.19,West,260,4.0,16.0,66,0.00,,,0.00,WUHU216DAVISVP2,2013-01-20 21:43:00,
2013-01-20 16:48:00,22.7,13.1,30.19,West,261,8.0,16.0,66,0.00,,,0.00,WUHU216DAVISVP2,2013-01-20 21:48:00,
2013-01-20 16:53:00,22.7,13.1,30.19,West,278,6.0,16.0,66,0.00,,,0.00,WUHU216DAVISVP2,2013-01-20 21:53:00,
2013-01-20 16:58:00,22.7,13.1,30.19,West,281,8.0,16.0,66,0.00,,,0.00,WUHU216DAVISVP2,2013-01-20 21:58:00,
2013-01-20 17:03:00,22.8,13.2,30.19,WNW,288,10.0,16.0,66,0.00,,,0.00,WUHU216DAVISVP2,2013-01-20 22:03:00,
2013-01-20 17:08:00,22.9,13.3,30.19,WNW,298,16.0,22.0,66,0.00,,,0.00,WUHU216DAVISVP2,2013-01-20 22:08:00,
2013-01-20 17:13:00,22.8,13.2,30.19,WNW,302,6.0,22.0,66,0.00,,,0.00,WUHU216DAVISVP2,2013-01-20 22:13:00,
2013-01-20 17:18:00,22.9,13.6,30.19,West,266,4.0,16.0,67,0.00,,,0.00,WUHU216DAVISVP2,2013-01-20 22:18:00,
2013-01-20 17:23:00,23.0,13.7,30.19,North,349,10.0,18.0,67,0.00,,,0.00,WUHU216DAVISVP2,2013-01-20 22:23:00,
2013-01-20 17:28:00,23.0,13.7,30.19,WSW,252,8.0,18.0,67,0.00,,,0.00,WUHU216DAVISVP2,2013-01-20 22:28:00,
2013-01-20 17:33:00,22.9,13.6,30.19,WNW,286,10.0,18.0,67,0.00,,,0.00,WUHU216DAVISVP2,2013-01-20 22:33:00,
2013-01-20 17:38:00,22.9,13.6,30.19,WSW,248,12.0,18.0,67,0.00,,,0.00,WUHU216DAVISVP2,2013-01-20 22:38:00,
2013-01-20 17:44:00,23.0,13.7,30.19,WNW,292,8.0,16.0,67,0.00,,,0.00,WUHU216DAVISVP2,2013-01-20 22:44:00,
2013-01-20 17:49:00,23.1,13.8,30.19,WNW,287,6.0,18.0,67,0.00,,,0.00,WUHU216DAVISVP2,2013-01-20 22:49:00,
2013-01-20 17:54:00,23.1,13.8,30.19,WNW,300,2.0,22.0,67,0.00,,,0.00,WUHU216DAVISVP2,2013-01-20 22:54:00,
2013-01-20 17:59:00,23.2,13.9,30.20,West,274,6.0,22.0,67,0.00,,,0.00,WUHU216DAVISVP2,2013-01-20 22:59:00,
2013-01-20 18:04:00,23.2,13.9,30.20,NNW,339,4.0,12.0,67,0.00,,,0.00,WUHU216DAVISVP2,2013-01-20 23:04:00,
2013-01-20 18:09:00,23.3,14.4,30.20,NW,317,4.0,12.0,68,0.00,,,0.00,WUHU216DAVISVP2,2013-01-20 23:09:00,
2013-01-20 18:14:00,23.3,14.0,30.20,WSW,253,8.0,16.0,67,0.00,,,0.00,WUHU216DAVISVP2,2013-01-20 23:14:00,
2013-01-20 18:19:00,23.3,14.4,30.20,North,5,8.0,16.0,68,0.00,,,0.00,WUHU216DAVISVP2,2013-01-20 23:19:00,
2013-01-20 18:24:00,23.3,14.4,30.20,NW,304,4.0,18.0,68,0.00,,,0.00,WUHU216DAVISVP2,2013-01-20 23:24:00,
2013-01-20 18:29:00,23.4,14.4,30.20,NW,315,4.0,16.0,68,0.00,,,0.00,WUHU216DAVISVP2,2013-01-20 23:29:00,
2013-01-20 18:34:00,23.4,14.1,30.20,WNW,295,6.0,18.0,67,0.00,,,0.00,WUHU216DAVISVP2,2013-01-20 23:34:00,
2013-01-20 18:39:00,23.5,13.9,30.20,WNW,296,4.0,18.0,66,0.00,,,0.00,WUHU216DAVISVP2,2013-01-20 23:39:00,
2013-01-20 18:44:00,23.6,13.6,30.20,WNW,290,8.0,14.0,65,0.00,,,0.00,WUHU216DAVISVP2,2013-01-20 23:44:00,
2013-01-20 18:49:00,23.6,13.3,30.20,WSW,245,14.0,14.0,64,0.00,,,0.00,WUHU216DAVISVP2,2013-01-20 23:49:00,
2013-01-20 18:54:00,23.6,13.6,30.20,WNW,291,12.0,18.0,65,0.00,,,0.00,WUHU216DAVISVP2,2013-01-20 23:54:00,
2013-01-20 18:59:00,23.7,13.7,30.20,NW,315,4.0,20.0,65,0.00,,,0.00,WUHU216DAVISVP2,2013-01-20 23:59:00,
2013-01-20 19:04:00,23.6,14.0,30.20,West,277,4.0,20.0,66,0.00,,,0.00,WUHU216DAVISVP2,2013-01-21 00:04:00,
2013-01-20 19:09:00,23.6,14.3,30.20,West,276,4.0,16.0,67,0.00,,,0.00,WUHU216DAVISVP2,2013-01-21 00:09:00,
2013-01-20 19:14:00,23.5,14.9,30.20,SW,221,2.0,16.0,69,0.00,,,0.00,WUHU216DAVISVP2,2013-01-21 00:14:00,
2013-01-20 19:19:00,23.2,14.9,30.20,WNW,294,0.0,16.0,70,0.00,,,0.00,WUHU216DAVISVP2,2013-01-21 00:19:00,
2013-01-20 19:24:00,23.1,14.8,30.20,SW,217,4.0,16.0,70,0.00,,,0.00,WUHU216DAVISVP2,2013-01-21 00:24:00,
2013-01-20 19:29:00,23.1,14.5,30.21,West,269,6.0,24.0,69,0.00,,,0.00,WUHU216DAVISVP2,2013-01-21 00:29:00,
2013-01-20 19:35:00,23.3,14.4,30.21,West,267,6.0,24.0,68,0.00,,,0.00,WUHU216DAVISVP2,2013-01-21 00:35:00,
2013-01-20 19:40:00,23.4,14.1,30.21,West,270,8.0,18.0,67,0.00,,,0.00,WUHU216DAVISVP2,2013-01-21 00:40:00,
2013-01-20 19:45:00,23.5,13.5,30.21,WNW,288,6.0,16.0,65,0.00,,,0.00,WUHU216DAVISVP2,2013-01-21 00:45:00,
2013-01-20 19:50:00,23.5,13.9,30.20,WNW,287,4.0,18.0,66,0.00,,,0.00,WUHU216DAVISVP2,2013-01-21 00:50:00,
2013-01-20 19:55:00,23.5,13.5,30.20,WNW,283,6.0,22.0,65,0.00,,,0.00,WUHU216DAVISVP2,2013-01-21 00:55:00,
2013-01-20 20:00:00,23.5,13.9,30.20,West,274,10.0,22.0,66,0.00,,,0.00,WUHU216DAVISVP2,2013-01-21 01:00:00,
2013-01-20 20:05:00,23.5,13.2,30.20,West,277,4.0,22.0,64,0.00,,,0.00,WUHU216DAVISVP2,2013-01-21 01:05:00,
2013-01-20 20:10:00,23.4,12.7,30.20,WNW,289,6.0,16.0,63,0.00,,,0.00,WUHU216DAVISVP2,2013-01-21 01:10:00,
2013-01-20 20:15:00,23.4,12.7,30.21,West,274,4.0,20.0,63,0.00,,,0.00,WUHU216DAVISVP2,2013-01-21 01:15:00,
2013-01-20 20:20:00,23.4,12.7,30.21,WNW,286,4.0,20.0,63,0.00,,,0.00,WUHU216DAVISVP2,2013-01-21 01:20:00,
2013-01-20 20:25:00,23.3,12.2,30.21,West,280,4.0,24.0,62,0.00,,,0.00,WUHU216DAVISVP2,2013-01-21 01:25:00,
2013-01-20 20:30:00,23.3,13.0,30.21,WNW,282,6.0,24.0,64,0.00,,,0.00,WUHU216DAVISVP2,2013-01-21 01:30:00,
2013-01-20 20:35:00,23.4,12.7,30.21,WSW,254,4.0,12.0,63,0.00,,,0.00,WUHU216DAVISVP2,2013-01-21 01:35:00,
2013-01-20 20:40:00,23.3,11.9,30.21,NW,319,6.0,16.0,61,0.00,,,0.00,WUHU216DAVISVP2,2013-01-21 01:40:00,
2013-01-20 20:45:00,23.3,12.2,30.21,WNW,286,12.0,16.0,62,0.00,,,0.00,WUHU216DAVISVP2,2013-01-21 01:45:00,
2013-01-20 20:50:00,23.3,12.2,30.21,WNW,299,12.0,22.0,62,0.00,,,0.00,WUHU216DAVISVP2,2013-01-21 01:50:00,
2013-01-20 20:55:00,23.3,12.6,30.20,NW,308,10.0,22.0,63,0.00,,,0.00,WUHU216DAVISVP2,2013-01-21 01:55:00,
2013-01-20 21:00:00,23.2,12.1,30.21,NW,319,8.0,22.0,62,0.00,,,0.00,WUHU216DAVISVP2,2013-01-21 02:00:00,
2013-01-20 21:05:00,23.3,12.2,30.21,West,264,8.0,22.0,62,0.00,,,0.00,WUHU216DAVISVP2,2013-01-21 02:05:00,
2013-01-20 21:10:00,23.2,12.1,30.21,WNW,299,6.0,16.0,62,0.00,,,0.00,WUHU216DAVISVP2,2013-01-21 02:10:00,
2013-01-20 21:15:00,23.2,12.1,30.21,NW,313,6.0,14.0,62,0.00,,,0.00,WUHU216DAVISVP2,2013-01-21 02:15:00,
2013-01-20 21:20:00,23.2,11.8,30.20,WNW,295,8.0,20.0,61,0.00,,,0.00,WUHU216DAVISVP2,2013-01-21 02:20:00,
2013-01-20 21:25:00,23.2,12.1,30.20,WNW,300,4.0,20.0,62,0.00,,,0.00,WUHU216DAVISVP2,2013-01-21 02:25:00,
2013-01-20 21:30:00,23.1,11.7,30.21,WNW,288,8.0,20.0,61,0.00,,,0.00,WUHU216DAVISVP2,2013-01-21 02:30:00,
2013-01-20 21:35:00,23.2,12.1,30.20,ENE,57,6.0,14.0,62,0.00,,,0.00,WUHU216DAVISVP2,2013-01-21 02:35:00,
2013-01-20 21:41:00,23.1,12.4,30.20,West,262,2.0,14.0,63,0.00,,,0.00,WUHU216DAVISVP2,2013-01-21 02:41:00,
2013-01-20 21:46:00,23.1,12.8,30.20,SW,219,22.0,22.0,64,0.00,,,0.00,WUHU216DAVISVP2,2013-01-21 02:46:00,
2013-01-20 21:51:00,23.1,13.1,30.20,WNW,290,4.0,22.0,65,0.00,,,0.00,WUHU216DAVISVP2,2013-01-21 02:51:00,
2013-01-20 21:56:00,23.1,13.1,30.20,NNW,327,6.0,16.0,65,0.00,,,0.00,WUHU216DAVISVP2,2013-01-21 02:56:00,
2013-01-20 22:01:00,23.1,13.8,30.20,West,281,6.0,12.0,67,0.00,,,0.00,WUHU216DAVISVP2,2013-01-21 03:01:00,
2013-01-20 22:06:00,23.0,13.7,30.20,West,269,4.0,16.0,67,0.00,,,0.00,WUHU216DAVISVP2,2013-01-21 03:06:00,
2013-01-20 22:11:00,22.9,14.0,30.20,WSW,240,4.0,16.0,68,0.00,,,0.00,WUHU216DAVISVP2,2013-01-21 03:11:00,
2013-01-20 22:16:00,22.6,14.0,30.20,WSW,238,4.0,14.0,69,0.00,,,0.00,WUHU216DAVISVP2,2013-01-21 03:16:00,
2013-01-20 22:21:00,22.4,14.1,30.20,West,271,0.0,12.0,70,0.00,,,0.00,WUHU216DAVISVP2,2013-01-21 03:21:00,
2013-01-20 22:26:00,22.2,13.6,30.21,West,263,4.0,16.0,69,0.00,,,0.00,WUHU216DAVISVP2,2013-01-21 03:26:00,
2013-01-20 22:31:00,22.2,14.0,30.20,WSW,242,4.0,18.0,70,0.00,,,0.00,WUHU216DAVISVP2,2013-01-21 03:31:00,
2013-01-20 22:36:00,22.1,13.5,30.20,SW,232,14.0,18.0,69,0.00,,,0.00,WUHU216DAVISVP2,2013-01-21 03:36:00,
2013-01-20 22:41:00,22.1,13.5,30.20,WSW,242,12.0,18.0,69,0.00,,,0.00,WUHU216DAVISVP2,2013-01-21 03:41:00,
2013-01-20 22:46:00,22.0,12.8,30.20,West,260,10.0,20.0,67,0.00,,,0.00,WUHU216DAVISVP2,2013-01-21 03:46:00,
2013-01-20 22:52:00,22.1,12.9,30.20,WNW,302,4.0,14.0,67,0.00,,,0.00,WUHU216DAVISVP2,2013-01-21 03:52:00,
2013-01-20 22:57:00,22.1,13.2,30.20,West,270,4.0,12.0,68,0.00,,,0.00,WUHU216DAVISVP2,2013-01-21 03:57:00,
2013-01-20 23:02:00,22.1,12.9,30.20,West,276,2.0,10.0,67,0.00,,,0.00,WUHU216DAVISVP2,2013-01-21 04:02:00,
2013-01-20 23:07:00,22.0,12.8,30.20,West,265,4.0,12.0,67,0.00,,,0.00,WUHU216DAVISVP2,2013-01-21 04:07:00,
2013-01-20 23:12:00,22.0,12.4,30.20,WNW,290,2.0,12.0,66,0.00,,,0.00,WUHU216DAVISVP2,2013-01-21 04:12:00,
2013-01-20 23:17:00,21.9,12.3,30.19,West,271,4.0,16.0,66,0.00,,,0.00,WUHU216DAVISVP2,2013-01-21 04:17:00,
2013-01-20 23:22:00,21.9,13.0,30.19,WNW,294,4.0,16.0,68,0.00,,,0.00,WUHU216DAVISVP2,2013-01-21 04:22:00,
2013-01-20 23:27:00,21.9,12.7,30.19,NW,324,4.0,14.0,67,0.00,,,0.00,WUHU216DAVISVP2,2013-01-21 04:27:00,
2013-01-20 23:32:00,21.8,12.6,30.19,SW,225,4.0,14.0,67,0.00,,,0.00,WUHU216DAVISVP2,2013-01-21 04:32:00,
2013-01-20 23:37:00,21.8,12.9,30.19,NNW,327,0.0,12.0,68,0.00,,,0.00,WUHU216DAVISVP2,2013-01-21 04:37:00,
2013-01-20 23:42:00,21.8,12.6,30.19,West,271,6.0,12.0,67,0.00,,,0.00,WUHU216DAVISVP2,2013-01-21 04:42:00,
2013-01-20 23:47:00,21.8,12.9,30.19,West,281,6.0,16.0,68,0.00,,,0.00,WUHU216DAVISVP2,2013-01-21 04:47:00,
2013-01-20 23:53:00,21.7,12.8,30.19,West,273,0.0,16.0,68,0.00,,,0.00,WUHU216DAVISVP2,2013-01-21 04:53:00,
2013-01-20 23:58:00,21.6,12.4,30.18,WSW,255,12.0,14.0,67,0.00,,,0.00,WUHU216DAVISVP2,2013-01-21 04:58:00,